Time;durP1;ratioP1;P1;durP2;ratioP2;P2;SDS_P1;SDS_P2;PMS_P1;PMS_P2;Temp;Humidity;BMP_temperature;BMP_pressure;BME280_temperature;BME280_humidity;BME280_pressure;Samples;Min_cycle;Max_cycle;Signal;HPM_P1;HPM_P2
2024/02/13 05:00:51;;;;;;;4.80;3.88;;;4.80;99.90;;;;;;5771216;23;20723;-71
2024/02/13 05:03:26;;;;;;;3.97;3.67;;;4.80;99.90;;;;;;5012207;28;20238;-70
2024/02/13 05:08:37;;;;;;;3.88;3.58;;;4.70;99.90;;;;;;5008920;28;20638;-70
2024/02/13 05:11:04;;;;;;;6.50;4.35;;;4.70;99.90;;;;;;5002096;28;20709;-70
2024/02/13 05:13:32;;;;;;;5.70;4.00;;;4.60;99.90;;;;;;4995536;28;20236;-70
2024/02/13 05:16:00;;;;;;;7.95;3.63;;;4.60;99.90;;;;;;4995385;28;20237;-70
2024/02/13 05:18:27;;;;;;;5.85;3.65;;;4.60;99.90;;;;;;4986907;28;20211;-71
2024/02/13 05:20:54;;;;;;;5.00;3.60;;;4.60;99.90;;;;;;4999855;28;20722;-71
2024/02/13 05:23:20;;;;;;;4.95;3.78;;;4.50;99.90;;;;;;5005814;28;20208;-71
2024/02/13 05:25:48;;;;;;;4.43;4.05;;;4.50;99.90;;;;;;4999705;28;20227;-71
2024/02/13 05:28:15;;;;;;;4.65;4.25;;;4.50;99.90;;;;;;4996467;28;20243;-71
2024/02/13 05:30:42;;;;;;;5.32;3.10;;;4.40;99.90;;;;;;4995954;28;20232;-71
2024/02/13 05:33:11;;;;;;;11.70;5.63;;;4.40;99.90;;;;;;5001113;28;20712;-71
2024/02/13 05:35:41;;;;;;;4.15;3.65;;;4.40;99.90;;;;;;4997203;28;20277;-71
2024/02/13 05:38:09;;;;;;;4.78;4.30;;;4.30;99.90;;;;;;5004434;28;20290;-71
2024/02/13 05:40:38;;;;;;;8.60;4.93;;;4.30;99.90;;;;;;4998914;28;20238;-71
2024/02/13 05:43:07;;;;;;;6.32;3.90;;;4.30;99.90;;;;;;4994996;28;20566;-70
2024/02/13 05:45:33;;;;;;;8.45;5.03;;;4.20;99.90;;;;;;4994965;28;20207;-71
2024/02/13 05:48:01;;;;;;;4.47;4.10;;;4.20;99.90;;;;;;5004795;28;20211;-71
2024/02/13 05:50:29;;;;;;;4.63;4.22;;;4.10;99.90;;;;;;4991660;28;20223;-69
2024/02/13 05:52:56;;;;;;;9.13;5.18;;;4.10;99.90;;;;;;4991943;28;20227;-69
2024/02/13 05:55:23;;;;;;;4.78;4.35;;;4.10;99.90;;;;;;4990762;28;20625;-69
2024/02/13 05:57:50;;;;;;;10.25;4.50;;;4.10;99.90;;;;;;4991160;28;20614;-71
2024/02/13 06:00:17;;;;;;;4.22;3.55;;;4.00;99.90;;;;;;4999730;28;20208;-69
2024/02/13 06:02:45;;;;;;;3.78;3.35;;;4.00;99.90;;;;;;5000763;28;20232;-70
2024/02/13 06:05:14;;;;;;;13.02;4.80;;;4.00;99.90;;;;;;5000508;28;20226;-70
2024/02/13 06:07:44;;;;;;;4.78;4.22;;;3.90;99.90;;;;;;4999886;28;20207;-70
2024/02/13 06:10:11;;;;;;;9.70;4.63;;;3.90;99.90;;;;;;4999469;28;20254;-69
2024/02/13 06:12:39;;;;;;;7.28;4.15;;;3.90;99.90;;;;;;4992841;28;20240;-70
2024/02/13 06:15:06;;;;;;;8.27;4.75;;;3.80;99.90;;;;;;4991284;28;20208;-70
2024/02/13 06:17:33;;;;;;;4.63;4.18;;;3.80;99.90;;;;;;4995167;28;20204;-70
2024/02/13 06:20:04;;;;;;;7.45;4.40;;;3.80;99.90;;;;;;4996173;28;20203;-70
2024/02/13 06:22:32;;;;;;;6.65;4.45;;;3.80;99.90;;;;;;4987845;28;20228;-70
2024/02/13 06:25:00;;;;;;;11.52;5.80;;;3.70;99.90;;;;;;4997839;28;20274;-69
2024/02/13 06:27:26;;;;;;;7.07;5.05;;;3.70;99.90;;;;;;4999735;28;20199;-69
2024/02/13 06:29:53;;;;;;;14.55;4.90;;;3.70;99.90;;;;;;4994261;28;20579;-70
2024/02/13 06:32:20;;;;;;;7.15;5.05;;;3.70;99.90;;;;;;4991031;28;20270;-69
2024/02/13 06:34:46;;;;;;;4.78;4.35;;;3.70;99.90;;;;;;4991916;28;20227;-70
2024/02/13 06:37:13;;;;;;;8.70;3.67;;;3.70;99.90;;;;;;4996588;28;20649;-70
2024/02/13 06:39:40;;;;;;;6.88;5.90;;;3.70;99.90;;;;;;4996872;28;20204;-70
2024/02/13 06:42:08;;;;;;;7.82;4.05;;;3.70;99.90;;;;;;4995973;28;20227;-69
2024/02/13 06:44:36;;;;;;;7.90;5.03;;;3.70;99.90;;;;;;4989985;28;20200;-63
2024/02/13 06:47:06;;;;;;;9.60;7.03;;;3.80;99.90;;;;;;4983817;28;20204;-70
2024/02/13 06:49:33;;;;;;;6.45;5.68;;;3.80;99.90;;;;;;4988706;28;20207;-69
2024/02/13 06:52:00;;;;;;;11.05;5.88;;;3.80;99.90;;;;;;4997263;28;20224;-69
2024/02/13 06:54:27;;;;;;;9.38;6.60;;;3.80;99.90;;;;;;4990339;28;20240;-71
2024/02/13 06:56:53;;;;;;;13.18;6.50;;;3.90;99.90;;;;;;4992612;28;20546;-69
2024/02/13 06:59:21;;;;;;;8.63;6.72;;;3.90;99.90;;;;;;4997201;28;20208;-70
2024/02/13 07:01:48;;;;;;;5.47;4.35;;;3.80;99.90;;;;;;4990083;28;20331;-70
2024/02/13 07:04:15;;;;;;;8.80;5.63;;;3.90;99.90;;;;;;4999733;28;20308;-71
2024/02/13 07:06:42;;;;;;;14.27;6.22;;;3.80;99.90;;;;;;4992249;28;20655;-71
2024/02/13 07:09:10;;;;;;;13.20;6.97;;;3.80;99.90;;;;;;4997420;28;20208;-71
2024/02/13 07:11:37;;;;;;;9.15;6.60;;;3.80;99.90;;;;;;4989448;28;20223;-69
2024/02/13 07:14:03;;;;;;;13.38;5.82;;;3.80;99.90;;;;;;4994273;28;20232;-70
2024/02/13 07:16:31;;;;;;;9.23;5.85;;;3.80;99.90;;;;;;4988534;28;20211;-70
2024/02/13 07:18:58;;;;;;;12.10;6.30;;;3.80;99.90;;;;;;4991128;28;20610;-70
2024/02/13 07:21:26;;;;;;;11.55;7.15;;;3.80;99.90;;;;;;4999506;28;20223;-70
2024/02/13 07:23:54;;;;;;;6.03;5.15;;;3.80;99.90;;;;;;4993315;28;20203;-70
2024/02/13 07:26:22;;;;;;;7.53;5.82;;;3.80;99.90;;;;;;4993933;28;20275;-70
2024/02/13 07:28:49;;;;;;;8.73;5.80;;;3.90;99.90;;;;;;4990356;28;20310;-70
2024/02/13 07:31:19;;;;;;;8.63;6.22;;;3.90;99.90;;;;;;4993819;28;20262;-70
2024/02/13 07:33:47;;;;;;;9.90;5.88;;;3.90;99.90;;;;;;4995688;28;20274;-70
2024/02/13 07:36:14;;;;;;;11.10;7.82;;;3.90;99.90;;;;;;4990771;28;20215;-70
2024/02/13 07:38:40;;;;;;;28.90;19.67;;;3.90;99.90;;;;;;4993788;28;20574;-69
2024/02/13 07:41:08;;;;;;;19.25;8.88;;;4.00;99.90;;;;;;4999770;28;20229;-70
2024/02/13 07:43:35;;;;;;;45.42;19.88;;;4.10;99.90;;;;;;4990487;28;20204;-69
2024/02/13 07:46:03;;;;;;;18.42;9.25;;;4.10;99.90;;;;;;4999548;28;20704;-71
2024/02/13 07:48:30;;;;;;;23.58;13.15;;;4.20;99.90;;;;;;4995895;28;20226;-70
2024/02/13 07:50:58;;;;;;;18.50;9.48;;;4.20;99.90;;;;;;5000148;28;20223;-70
2024/02/13 07:53:26;;;;;;;13.10;7.70;;;4.20;99.90;;;;;;4992322;28;20223;-70
2024/02/13 07:55:52;;;;;;;17.63;9.32;;;4.30;99.90;;;;;;4993794;28;20212;-71
2024/02/13 07:58:19;;;;;;;15.07;8.70;;;4.20;99.90;;;;;;4979286;28;20211;-69
2024/02/13 08:00:46;;;;;;;13.05;8.30;;;4.20;99.90;;;;;;4987796;28;20239;-70
2024/02/13 08:03:13;;;;;;;17.50;10.93;;;4.20;99.90;;;;;;4989575;28;20262;-69
2024/02/13 08:05:39;;;;;;;14.18;8.77;;;4.30;99.90;;;;;;4994723;28;20204;-69
2024/02/13 08:08:10;;;;;;;16.77;8.45;;;4.30;99.90;;;;;;4986862;28;20658;-69
2024/02/13 08:10:39;;;;;;;13.20;8.27;;;4.30;99.90;;;;;;4993015;28;20310;-70
2024/02/13 08:13:06;;;;;;;11.10;7.93;;;4.30;99.90;;;;;;4990287;28;20215;-70
2024/02/13 08:15:33;;;;;;;10.50;6.20;;;4.40;99.90;;;;;;4994991;28;20204;-71
2024/02/13 08:18:01;;;;;;;18.63;8.43;;;4.40;99.90;;;;;;4989997;28;20679;-70
2024/02/13 08:20:28;;;;;;;16.77;7.80;;;4.50;99.90;;;;;;4979977;28;20254;-70
2024/02/13 08:22:54;;;;;;;12.65;7.90;;;4.50;99.90;;;;;;4982884;28;20204;-69
2024/02/13 08:25:22;;;;;;;23.80;10.55;;;4.60;99.90;;;;;;4988119;28;20208;-69
2024/02/13 08:27:49;;;;;;;19.88;9.07;;;4.80;99.90;;;;;;4993815;28;20207;-71
2024/02/13 08:30:17;;;;;;;15.05;9.63;;;5.00;99.90;;;;;;4989281;28;20610;-71
2024/02/13 08:32:44;;;;;;;14.85;9.18;;;5.10;99.90;;;;;;4986807;28;20212;-70
2024/02/13 08:35:11;;;;;;;12.88;8.95;;;5.10;99.90;;;;;;4990197;28;20259;-70
2024/02/13 08:37:38;;;;;;;11.32;8.27;;;5.10;99.90;;;;;;4988317;28;20204;-69
2024/02/13 08:40:06;;;;;;;19.00;7.45;;;5.20;99.90;;;;;;4995839;28;20227;-70
2024/02/13 08:42:34;;;;;;;17.67;10.27;;;5.30;99.90;;;;;;4992939;28;20227;-69
2024/02/13 08:45:01;;;;;;;16.33;8.38;;;5.30;99.90;;;;;;4993028;28;20208;-68
2024/02/13 08:47:28;;;;;;;11.70;7.90;;;5.40;99.90;;;;;;4994454;28;20277;-70
2024/02/13 08:49:55;;;;;;;14.75;7.75;;;5.50;99.90;;;;;;4995877;28;20209;-71
2024/02/13 08:52:21;;;;;;;13.25;8.05;;;5.50;99.90;;;;;;4990807;28;20709;-68
2024/02/13 08:54:48;;;;;;;16.75;8.00;;;5.60;99.90;;;;;;4991035;28;20225;-69
2024/02/13 08:57:15;;;;;;;11.05;9.25;;;5.60;99.90;;;;;;4988087;28;20224;-69
2024/02/13 08:59:45;;;;;;;18.05;9.30;;;5.70;99.90;;;;;;4990449;28;20593;-70
2024/02/13 09:02:11;;;;;;;16.50;9.38;;;5.80;99.90;;;;;;4993494;28;20245;-69
2024/02/13 09:04:38;;;;;;;15.05;8.75;;;5.90;99.90;;;;;;4995019;28;20644;-69
2024/02/13 09:07:05;;;;;;;8.90;6.80;;;5.90;99.90;;;;;;4994621;28;20251;-68
2024/02/13 09:09:32;;;;;;;10.95;8.10;;;6.10;99.90;;;;;;4995412;28;20214;-67
2024/02/13 09:11:59;;;;;;;11.45;6.10;;;6.20;99.90;;;;;;4987774;28;20336;-68
2024/02/13 09:14:26;;;;;;;16.77;8.75;;;6.10;99.90;;;;;;4987790;28;20222;-68
2024/02/13 09:16:57;;;;;;;18.10;10.02;;;6.10;99.90;;;;;;4991356;28;20202;-67
2024/02/13 09:19:25;;;;;;;20.83;9.48;;;6.20;99.90;;;;;;4994738;28;20605;-68
2024/02/13 09:21:52;;;;;;;14.77;8.52;;;6.20;99.90;;;;;;4995386;28;20223;-68
2024/02/13 09:24:18;;;;;;;12.95;7.93;;;6.20;99.90;;;;;;4986171;28;20240;-68
2024/02/13 09:26:45;;;;;;;17.25;9.13;;;6.20;99.90;;;;;;4993792;28;20210;-68
2024/02/13 09:29:12;;;;;;;13.65;8.93;;;6.20;99.90;;;;;;4992918;28;20225;-68
2024/02/13 09:31:38;;;;;;;17.77;8.80;;;6.20;99.90;;;;;;4994979;28;20228;-68
2024/02/13 09:34:08;;;;;;;10.52;7.50;;;6.30;99.90;;;;;;4988599;28;20321;-67
2024/02/13 09:36:37;;;;;;;8.65;6.57;;;6.30;99.90;;;;;;4987795;28;20229;-68
2024/02/13 09:39:04;;;;;;;10.65;7.57;;;6.40;99.90;;;;;;4994408;28;20625;-69
2024/02/13 09:41:31;;;;;;;13.95;6.75;;;6.40;99.90;;;;;;4992595;28;20300;-69
2024/02/13 09:43:59;;;;;;;9.70;7.40;;;6.40;99.90;;;;;;4992451;28;20203;-69
2024/02/13 09:46:27;;;;;;;11.10;7.63;;;6.50;99.90;;;;;;4991893;28;20219;-69
2024/02/13 09:48:56;;;;;;;14.13;8.70;;;6.60;99.90;;;;;;4984981;28;20273;-69
2024/02/13 09:51:26;;;;;;;15.45;8.18;;;6.60;99.90;;;;;;4989778;28;20230;-69
2024/02/13 09:53:53;;;;;;;11.85;7.05;;;6.70;99.90;;;;;;4986648;28;20245;-69
2024/02/13 09:56:21;;;;;;;16.10;7.70;;;6.70;99.90;;;;;;4981960;28;20207;-69
2024/02/13 09:58:48;;;;;;;11.90;7.20;;;6.80;99.90;;;;;;4992544;28;20221;-69
2024/02/13 10:01:15;;;;;;;13.82;8.50;;;6.80;99.90;;;;;;4988775;28;20239;-69
2024/02/13 10:03:42;;;;;;;15.50;8.65;;;6.80;99.90;;;;;;4994147;28;20538;-69
2024/02/13 10:06:09;;;;;;;11.65;7.05;;;6.80;99.90;;;;;;4990038;28;20210;-69
2024/02/13 10:08:39;;;;;;;10.55;6.72;;;6.90;99.90;;;;;;4989286;28;20718;-69
2024/02/13 10:11:08;;;;;;;16.23;8.63;;;6.90;99.90;;;;;;4984630;28;20337;-69
2024/02/13 10:13:38;;;;;;;11.88;7.15;;;7.00;99.90;;;;;;4985656;28;20211;-69
2024/02/13 10:16:05;;;;;;;11.38;7.32;;;7.00;99.90;;;;;;4987427;28;20595;-69
2024/02/13 10:18:33;;;;;;;15.60;8.25;;;7.00;99.90;;;;;;4984138;28;20570;-69
2024/02/13 10:21:04;;;;;;;9.75;8.30;;;7.10;99.90;;;;;;4991331;28;20234;-70
2024/02/13 10:23:33;;;;;;;10.68;7.88;;;7.00;99.90;;;;;;4997709;28;20358;-70
2024/02/13 10:26:06;;;;;;;6.75;5.82;;;7.00;99.90;;;;;;5000192;28;20204;-70
2024/02/13 10:28:33;;;;;;;7.40;6.65;;;7.10;99.90;;;;;;4993426;28;20207;-70
2024/02/13 10:31:00;;;;;;;11.20;7.75;;;7.20;99.90;;;;;;4992880;28;20318;-70
2024/02/13 10:33:27;;;;;;;12.88;8.27;;;7.20;99.90;;;;;;4994868;28;20215;-70
2024/02/13 10:35:56;;;;;;;17.83;7.95;;;7.30;99.90;;;;;;4994397;28;20229;-70
2024/02/13 10:38:30;;;;;;;11.10;6.45;;;7.40;99.90;;;;;;4987070;28;20296;-70
2024/02/13 10:40:58;;;;;;;11.57;6.97;;;7.40;99.90;;;;;;4997741;28;20230;-70
2024/02/13 10:43:27;;;;;;;10.90;6.60;;;7.40;99.90;;;;;;4993452;28;20216;-69
2024/02/13 10:45:58;;;;;;;16.77;9.07;;;7.40;99.90;;;;;;4990256;28;20207;-69
2024/02/13 10:48:37;;;;;;;8.73;6.50;;;7.50;99.90;;;;;;4993677;28;20211;-69
2024/02/13 10:51:07;;;;;;;14.30;6.80;;;7.40;99.90;;;;;;4994406;28;20234;-70
2024/02/13 10:53:36;;;;;;;16.50;8.20;;;7.50;99.90;;;;;;4995910;28;20302;-68
2024/02/13 10:56:03;;;;;;;15.73;6.88;;;7.60;99.90;;;;;;4997852;28;20701;-69
2024/02/13 10:58:32;;;;;;;9.93;6.72;;;7.60;99.90;;;;;;4992703;28;20240;-70
2024/02/13 11:01:00;;;;;;;7.90;7.15;;;7.60;99.90;;;;;;4993958;28;20241;-69
2024/02/13 11:03:27;;;;;;;11.25;8.60;;;7.60;99.90;;;;;;4999079;28;20211;-68
2024/02/13 11:05:53;;;;;;;11.18;7.93;;;7.70;99.90;;;;;;4990892;28;20200;-68
2024/02/13 11:08:20;;;;;;;8.57;6.90;;;7.70;99.90;;;;;;4985900;28;20227;-69
2024/02/13 11:10:48;;;;;;;13.48;7.32;;;7.80;99.90;;;;;;4997152;28;20258;-69
2024/02/13 11:13:18;;;;;;;9.88;6.38;;;7.70;99.90;;;;;;4997835;28;20216;-69
2024/02/13 11:15:46;;;;;;;11.80;8.05;;;7.80;99.90;;;;;;4989125;28;20246;-65
2024/02/13 11:18:14;;;;;;;9.48;6.05;;;7.90;99.90;;;;;;4986803;28;20964;-65
2024/02/13 11:20:42;;;;;;;12.55;5.97;;;7.90;99.90;;;;;;4986797;28;20220;-65
2024/02/13 11:23:12;;;;;;;12.15;6.88;;;7.90;99.90;;;;;;4985908;28;20211;-66
2024/02/13 11:25:40;;;;;;;10.95;8.10;;;8.00;99.90;;;;;;4999142;28;20206;-65
2024/02/13 11:28:10;;;;;;;9.13;6.22;;;8.00;99.90;;;;;;4993819;28;20366;-65
2024/02/13 11:30:40;;;;;;;14.68;6.90;;;8.00;99.90;;;;;;4988486;28;20235;-70
2024/02/13 11:33:08;;;;;;;10.93;6.85;;;8.00;99.90;;;;;;5001280;28;20211;-69
2024/02/13 11:35:39;;;;;;;15.90;6.63;;;8.00;99.90;;;;;;4993019;28;20224;-69
2024/02/13 11:38:15;;;;;;;10.77;7.28;;;8.00;99.90;;;;;;4998021;28;20216;-69
2024/02/13 11:40:44;;;;;;;12.35;7.57;;;8.00;99.90;;;;;;5005004;28;20262;-69
2024/02/13 11:43:26;;;;;;;10.30;8.10;;;8.00;99.90;;;;;;4992221;28;20281;-69
2024/02/13 11:45:53;;;;;;;17.88;7.55;;;8.00;99.90;;;;;;4987958;28;20204;-68
2024/02/13 11:48:23;;;;;;;17.25;8.45;;;7.90;99.90;;;;;;4985751;28;20219;-68
2024/02/13 11:50:50;;;;;;;12.55;8.02;;;7.90;99.90;;;;;;4989372;28;20238;-68
2024/02/13 11:53:17;;;;;;;10.23;6.82;;;7.80;99.90;;;;;;4997251;28;20294;-68
2024/02/13 11:55:44;;;;;;;8.23;7.20;;;7.80;99.90;;;;;;4994949;28;20314;-68
2024/02/13 11:58:19;;;;;;;12.05;6.38;;;7.70;99.90;;;;;;4994957;28;20210;-68
2024/02/13 12:00:56;;;;;;;13.07;6.72;;;7.70;99.90;;;;;;4989901;28;20242;-69
2024/02/13 12:03:25;;;;;;;8.45;6.85;;;7.70;99.90;;;;;;4983616;28;20237;-68
2024/02/13 12:05:52;;;;;;;10.68;7.70;;;7.70;99.90;;;;;;4995079;28;20219;-68
2024/02/13 12:08:20;;;;;;;14.15;7.35;;;7.70;99.90;;;;;;4990501;28;20212;-68
2024/02/13 12:10:48;;;;;;;16.80;9.13;;;7.80;99.90;;;;;;4990671;28;20262;-69
2024/02/13 12:13:18;;;;;;;11.15;7.03;;;7.90;99.90;;;;;;4994354;28;20235;-68
2024/02/13 12:15:45;;;;;;;13.00;8.38;;;7.90;99.90;;;;;;4989884;28;20270;-68
2024/02/13 12:18:12;;;;;;;14.10;7.38;;;8.00;99.90;;;;;;4991252;28;20216;-69
2024/02/13 12:20:40;;;;;;;12.10;7.38;;;8.00;99.90;;;;;;4989939;28;20224;-68
2024/02/13 12:23:12;;;;;;;11.57;6.82;;;8.10;99.90;;;;;;4999428;28;20234;-69
2024/02/13 12:25:41;;;;;;;17.38;7.35;;;8.10;99.90;;;;;;4991811;28;20192;-68
2024/02/13 12:28:12;;;;;;;12.23;9.10;;;8.20;99.90;;;;;;4994689;28;20454;-68
2024/02/13 12:30:39;;;;;;;13.23;7.78;;;8.20;99.90;;;;;;4997670;28;20220;-69
2024/02/13 12:33:07;;;;;;;14.07;7.32;;;8.20;99.90;;;;;;5000798;28;20206;-68
2024/02/13 12:35:36;;;;;;;11.77;7.07;;;8.20;99.90;;;;;;4991136;28;20220;-69
2024/02/13 12:38:12;;;;;;;10.15;7.07;;;8.30;99.90;;;;;;4986837;28;20223;-69
2024/02/13 12:40:39;;;;;;;12.35;7.82;;;8.30;99.90;;;;;;4989303;28;20227;-68
2024/02/13 12:43:05;;;;;;;12.90;6.10;;;8.30;99.90;;;;;;4986636;28;20199;-68
2024/02/13 12:45:41;;;;;;;7.80;5.88;;;8.30;99.90;;;;;;4984310;28;20284;-69
2024/02/13 12:48:08;;;;;;;16.10;6.55;;;8.20;99.90;;;;;;4986639;28;20218;-68
2024/02/13 12:50:35;;;;;;;12.02;8.13;;;8.30;99.90;;;;;;4990450;28;20252;-68
2024/02/13 12:53:03;;;;;;;6.53;6.05;;;8.30;99.90;;;;;;4990824;28;20299;-69
2024/02/13 12:55:32;;;;;;;9.63;6.40;;;8.30;99.90;;;;;;4990498;28;20285;-69
2024/02/13 12:57:59;;;;;;;9.82;6.80;;;8.30;99.90;;;;;;4987107;28;20548;-69
2024/02/13 13:00:28;;;;;;;14.15;7.85;;;8.30;99.90;;;;;;4986598;28;20208;-67
2024/02/13 13:02:57;;;;;;;9.50;6.40;;;8.20;99.90;;;;;;4997116;28;20579;-67
2024/02/13 13:05:26;;;;;;;9.40;6.50;;;8.30;99.90;;;;;;4986657;28;20195;-67
2024/02/13 13:07:56;;;;;;;8.25;6.40;;;8.30;99.90;;;;;;4990727;28;20214;-68
2024/02/13 13:10:26;;;;;;;13.60;6.13;;;8.30;99.90;;;;;;4985456;28;20290;-67
2024/02/13 13:12:54;;;;;;;9.98;6.43;;;8.30;99.90;;;;;;4993291;28;20299;-67
2024/02/13 13:15:21;;;;;;;7.00;5.88;;;8.20;99.90;;;;;;4985202;28;20235;-67
2024/02/13 13:17:48;;;;;;;6.05;5.50;;;8.20;99.90;;;;;;4985523;28;20593;-67
2024/02/13 13:20:17;;;;;;;11.30;6.22;;;8.20;99.90;;;;;;4983765;28;20219;-68
2024/02/13 13:22:46;;;;;;;9.50;6.03;;;8.20;99.90;;;;;;4987729;28;20231;-67
2024/02/13 13:25:13;;;;;;;7.35;6.65;;;8.20;99.90;;;;;;4988139;28;20543;-67
2024/02/13 13:27:40;;;;;;;9.45;6.47;;;8.20;99.90;;;;;;4987924;28;20207;-68
2024/02/13 13:30:15;;;;;;;13.02;6.78;;;8.10;99.90;;;;;;4991138;28;20199;-68
2024/02/13 13:32:41;;;;;;;9.25;6.78;;;8.20;99.90;;;;;;4994539;28;20213;-67
2024/02/13 13:35:08;;;;;;;8.18;5.63;;;8.20;99.90;;;;;;4990825;28;20240;-70
2024/02/13 13:37:36;;;;;;;7.03;6.22;;;8.20;99.90;;;;;;4985175;28;20266;-70
2024/02/13 13:40:11;;;;;;;6.78;6.15;;;8.20;99.90;;;;;;4989739;28;20208;-68
2024/02/13 13:42:43;;;;;;;7.65;5.40;;;8.20;99.90;;;;;;4990925;28;20203;-69
2024/02/13 13:45:14;;;;;;;13.25;5.90;;;8.20;99.90;;;;;;4989033;28;20335;-69
2024/02/13 13:47:44;;;;;;;11.93;6.75;;;8.20;99.90;;;;;;4986325;28;20283;-69
2024/02/13 13:50:13;;;;;;;10.73;6.28;;;8.20;99.90;;;;;;4991085;28;20214;-69
2024/02/13 13:52:42;;;;;;;10.73;6.40;;;8.20;99.90;;;;;;4989565;28;20729;-69
2024/02/13 13:55:09;;;;;;;12.07;6.03;;;8.20;99.90;;;;;;4984613;28;20262;-69
2024/02/13 13:57:36;;;;;;;12.27;5.82;;;8.20;99.90;;;;;;4994847;28;20622;-69
2024/02/13 14:00:09;;;;;;;5.95;5.35;;;8.20;99.90;;;;;;4995348;28;20565;-69
2024/02/13 14:02:37;;;;;;;8.20;6.63;;;8.20;99.90;;;;;;4989705;28;20255;-69
2024/02/13 14:05:05;;;;;;;11.23;5.18;;;8.10;99.90;;;;;;4987945;28;20227;-69
2024/02/13 14:07:32;;;;;;;8.88;5.55;;;8.10;99.90;;;;;;4990828;28;20589;-69
2024/02/13 14:09:58;;;;;;;10.48;6.63;;;8.10;99.90;;;;;;4989166;28;20295;-69
2024/02/13 14:12:25;;;;;;;17.23;6.90;;;8.10;99.90;;;;;;4988112;28;20235;-69
2024/02/13 14:14:52;;;;;;;11.55;6.18;;;8.10;99.90;;;;;;4991987;28;20223;-67
2024/02/13 14:17:19;;;;;;;8.57;6.43;;;8.10;99.90;;;;;;4982206;28;20227;-68
2024/02/13 14:19:47;;;;;;;9.57;5.68;;;8.20;99.90;;;;;;4984624;28;20204;-69
2024/02/13 14:22:14;;;;;;;7.00;5.60;;;8.10;99.90;;;;;;4992562;28;20301;-68
2024/02/13 14:24:43;;;;;;;7.63;5.30;;;8.20;99.90;;;;;;4989737;28;20204;-69
2024/02/13 14:27:12;;;;;;;6.88;5.07;;;8.20;99.90;;;;;;4989448;28;20203;-69
2024/02/13 14:29:39;;;;;;;6.45;4.50;;;8.20;99.90;;;;;;4988224;28;20226;-68
2024/02/13 14:32:06;;;;;;;5.43;5.00;;;8.30;99.90;;;;;;4988823;28;20231;-68
2024/02/13 14:34:32;;;;;;;5.85;5.35;;;8.40;99.90;;;;;;4983307;28;20866;-68
2024/02/13 14:37:01;;;;;;;5.60;5.03;;;8.40;99.90;;;;;;4986015;28;20246;-68
2024/02/13 14:39:28;;;;;;;4.20;4.00;;;8.40;99.90;;;;;;4988895;28;20204;-70
2024/02/13 14:41:55;;;;;;;5.50;4.57;;;8.40;99.90;;;;;;4989142;28;20227;-69
2024/02/13 14:44:21;;;;;;;8.07;5.13;;;8.40;99.90;;;;;;4987862;28;20200;-69
2024/02/13 14:46:48;;;;;;;5.78;4.30;;;8.40;99.90;;;;;;4991640;28;20200;-68
2024/02/13 14:49:15;;;;;;;6.63;4.80;;;8.40;99.90;;;;;;4986836;28;20274;-69
2024/02/13 14:51:42;;;;;;;5.55;4.63;;;8.40;99.90;;;;;;4987694;28;20240;-68
2024/02/13 14:54:10;;;;;;;6.70;5.22;;;8.40;99.90;;;;;;4993333;28;20214;-69
2024/02/13 14:56:37;;;;;;;6.20;5.13;;;8.40;99.90;;;;;;4989152;28;20224;-69
2024/02/13 14:59:04;;;;;;;5.60;5.13;;;8.40;99.90;;;;;;4992115;28;20211;-69
2024/02/13 15:01:31;;;;;;;5.93;4.25;;;8.50;99.90;;;;;;4988468;28;20705;-68
2024/02/13 15:03:59;;;;;;;5.03;4.30;;;8.50;99.90;;;;;;4984942;28;20223;-68
2024/02/13 15:06:26;;;;;;;6.43;4.38;;;8.50;99.90;;;;;;4985856;28;20201;-68
2024/02/13 15:08:53;;;;;;;6.80;5.60;;;8.50;99.90;;;;;;4986522;28;20223;-68
2024/02/13 15:11:21;;;;;;;4.40;4.00;;;8.50;99.90;;;;;;4988460;28;20933;-68
2024/02/13 15:13:48;;;;;;;7.45;3.92;;;8.50;99.90;;;;;;4988687;28;20204;-68
2024/02/13 15:16:17;;;;;;;6.85;5.57;;;8.50;99.90;;;;;;4991647;28;20239;-68
2024/02/13 15:18:44;;;;;;;6.65;4.38;;;8.50;99.90;;;;;;4993330;28;20203;-68
2024/02/13 15:21:11;;;;;;;7.80;4.30;;;8.50;99.90;;;;;;4993869;28;20232;-69
2024/02/13 15:23:38;;;;;;;8.00;3.83;;;8.50;99.90;;;;;;4986757;28;20220;-69
2024/02/13 15:26:07;;;;;;;11.13;7.90;;;8.50;99.90;;;;;;4991776;28;20200;-69
2024/02/13 15:28:35;;;;;;;27.98;16.80;;;8.50;99.90;;;;;;4991790;28;20713;-69
2024/02/13 15:31:02;;;;;;;9.88;7.65;;;8.50;99.90;;;;;;4988771;28;20302;-69
2024/02/13 15:33:28;;;;;;;16.85;11.63;;;8.50;99.90;;;;;;4991345;28;20618;-69
2024/02/13 15:36:04;;;;;;;8.13;5.40;;;8.50;99.90;;;;;;4992511;28;20314;-69
2024/02/13 15:47:03;;;;;;;8.45;6.20;;;8.40;99.90;;;;;;4991027;28;20230;-68
2024/02/13 15:49:29;;;;;;;8.05;4.68;;;8.20;99.90;;;;;;4985694;28;20203;-68
2024/02/13 15:51:56;;;;;;;7.35;4.82;;;8.20;99.90;;;;;;4992210;28;20235;-68
2024/02/13 15:54:23;;;;;;;11.60;7.53;;;8.10;99.90;;;;;;4991829;28;20216;-68
2024/02/13 15:56:51;;;;;;;4.85;4.40;;;8.10;99.90;;;;;;4987600;28;20227;-68
2024/02/13 15:59:19;;;;;;;5.63;4.97;;;8.00;99.90;;;;;;4989903;28;20541;-68
2024/02/13 16:01:47;;;;;;;7.35;5.10;;;8.00;99.90;;;;;;4991085;28;20249;-68
2024/02/13 16:04:17;;;;;;;5.78;5.05;;;7.90;99.90;;;;;;4993831;28;20554;-68
2024/02/13 16:06:45;;;;;;;3.75;3.58;;;7.90;99.90;;;;;;4984673;28;20227;-68
2024/02/13 16:09:13;;;;;;;7.45;6.03;;;7.80;99.90;;;;;;4990883;28;20207;-67
2024/02/13 16:11:39;;;;;;;4.63;4.22;;;7.80;99.90;;;;;;4984870;28;20292;-68
2024/02/13 16:14:06;;;;;;;3.22;3.03;;;7.90;99.90;;;;;;4991708;28;20203;-68
2024/02/13 16:16:35;;;;;;;6.70;5.60;;;7.90;99.90;;;;;;4990682;28;20234;-68
2024/02/13 16:19:03;;;;;;;13.88;8.30;;;7.80;99.90;;;;;;4988671;28;20214;-68
2024/02/13 16:21:30;;;;;;;5.65;5.00;;;7.80;99.90;;;;;;4988685;28;20594;-69
2024/02/13 16:23:56;;;;;;;4.28;3.97;;;7.70;99.90;;;;;;4992649;28;20223;-69
2024/02/13 16:26:23;;;;;;;10.55;4.00;;;7.70;99.90;;;;;;4989224;28;20219;-69
2024/02/13 16:28:50;;;;;;;6.28;4.10;;;7.70;99.90;;;;;;4991233;28;20582;-69
2024/02/13 16:31:20;;;;;;;5.05;4.63;;;7.60;99.90;;;;;;4992250;28;20226;-70
2024/02/13 16:33:48;;;;;;;5.72;4.80;;;7.60;99.90;;;;;;4990317;28;20208;-69
2024/02/13 16:36:15;;;;;;;4.50;4.07;;;7.60;99.90;;;;;;4989784;28;20277;-69
2024/02/13 16:38:42;;;;;;;5.18;4.05;;;7.50;99.90;;;;;;4991358;28;20219;-69
2024/02/13 16:41:15;;;;;;;3.88;3.70;;;7.50;99.90;;;;;;4990273;28;20244;-70
2024/02/13 16:43:44;;;;;;;5.45;4.45;;;7.50;99.90;;;;;;4989492;28;20204;-69
2024/02/13 16:46:13;;;;;;;5.35;4.43;;;7.40;99.90;;;;;;4992605;28;20289;-70
2024/02/13 16:48:41;;;;;;;6.65;4.88;;;7.40;99.90;;;;;;4990166;28;20302;-70
2024/02/13 16:51:09;;;;;;;4.80;4.40;;;7.40;99.90;;;;;;4987518;28;20316;-70
2024/02/13 16:53:37;;;;;;;4.25;3.63;;;7.40;99.90;;;;;;4985265;28;20597;-68
2024/02/13 16:56:04;;;;;;;3.75;3.45;;;7.30;99.90;;;;;;4991228;28;20268;-68
2024/02/13 16:58:31;;;;;;;7.03;4.00;;;7.40;99.90;;;;;;4989582;28;20764;-69
2024/02/13 17:00:58;;;;;;;4.72;4.05;;;7.30;99.90;;;;;;4989630;28;20238;-69
2024/02/13 17:03:25;;;;;;;4.13;3.83;;;7.30;99.90;;;;;;4990174;28;20207;-69
2024/02/13 17:05:52;;;;;;;4.25;3.83;;;7.30;99.90;;;;;;4991125;28;20740;-70
2024/02/13 17:08:20;;;;;;;3.88;3.60;;;7.30;99.90;;;;;;4990282;28;20260;-70
2024/02/13 17:10:47;;;;;;;5.22;4.75;;;7.30;99.90;;;;;;4987583;28;20291;-69
2024/02/13 17:13:14;;;;;;;9.52;5.40;;;7.30;99.90;;;;;;4987039;28;20208;-69
2024/02/13 17:15:42;;;;;;;11.40;4.70;;;7.30;99.90;;;;;;4985962;28;20204;-70
2024/02/13 17:18:09;;;;;;;5.88;4.18;;;7.30;99.90;;;;;;4987215;28;20231;-70
2024/02/13 17:20:36;;;;;;;6.13;4.85;;;7.30;99.90;;;;;;4989158;28;20223;-70
2024/02/13 17:23:04;;;;;;;10.00;5.47;;;7.30;99.90;;;;;;4989605;28;20619;-70
2024/02/13 17:25:33;;;;;;;5.20;4.70;;;7.20;99.90;;;;;;4990272;28;20203;-70
2024/02/13 17:27:59;;;;;;;3.63;3.22;;;7.20;99.90;;;;;;4989823;28;20294;-70
2024/02/13 17:30:26;;;;;;;5.30;4.20;;;7.10;99.90;;;;;;4990424;28;20219;-70
2024/02/13 17:32:54;;;;;;;4.70;4.40;;;7.00;99.90;;;;;;4990008;28;20203;-70
2024/02/13 17:35:21;;;;;;;11.00;5.30;;;7.00;99.90;;;;;;4982475;28;20315;-70
2024/02/13 17:37:47;;;;;;;5.18;4.20;;;7.00;99.90;;;;;;4978809;28;20259;-70
2024/02/13 17:40:15;;;;;;;8.57;5.15;;;6.90;99.90;;;;;;4990607;28;20206;-71
2024/02/13 17:42:44;;;;;;;4.38;4.07;;;6.90;99.90;;;;;;4988892;28;20226;-70
2024/02/13 17:45:10;;;;;;;8.57;3.80;;;6.90;99.90;;;;;;4985343;28;20211;-70
2024/02/13 17:47:37;;;;;;;4.05;3.75;;;6.80;99.90;;;;;;4989429;28;20572;-69
2024/02/13 17:50:06;;;;;;;4.57;4.20;;;6.80;99.90;;;;;;4990367;28;20207;-69
2024/02/13 17:52:33;;;;;;;4.03;3.72;;;6.80;99.90;;;;;;4988710;28;20223;-69
2024/02/13 17:55:00;;;;;;;10.00;3.95;;;6.80;99.90;;;;;;4990661;28;20215;-70
2024/02/13 17:57:27;;;;;;;3.58;3.40;;;6.80;99.90;;;;;;4986493;28;20234;-71
2024/02/13 17:59:56;;;;;;;3.35;3.15;;;6.80;99.90;;;;;;4984996;28;20210;-71
2024/02/13 18:02:23;;;;;;;4.25;3.80;;;6.80;99.90;;;;;;4980613;28;20756;-70
2024/02/13 18:04:50;;;;;;;3.70;3.40;;;6.80;99.90;;;;;;4991203;28;20202;-70
2024/02/13 18:07:17;;;;;;;3.63;3.42;;;6.80;99.90;;;;;;4985312;28;20214;-70